Qingyuan, China
Current Conditions -  °F | °C
As of 2:00 AM on Saturday 20 Dec 2014 (Local Time) from ZYTX Reporting Station
Clear Clear  
Wind Chill:   Ceiling: Unl
Heat Index: 12°   Visibility: 6mi
Dew Point:   Wind: 4mph
Humidity: 62%   Direction: 300°WNW
Pressure: 30.24"   Gusts: NA
Location:  42.1°N, 124.95°E
Report Text: ZYTX 191800Z 30002MPS CAVOK M11/M17 Q1024 NOSIG
Loading
Personal Weather Stations






























Interactive Weather Map New forecast layout! Learn more

10-Day Weather Forecast

Advertisements
Track Severe Weather on mobile